createdAt,value
2022-08-26T00:01:45.140Z,91889.28
2022-08-26T00:04:12.674Z,91897.66
2022-08-26T00:06:42.501Z,91891.34
2022-08-26T00:09:16.020Z,91895.59
2022-08-26T00:11:44.761Z,91892.06
2022-08-26T00:14:13.880Z,91887.09
2022-08-26T00:16:47.495Z,91884.28
2022-08-26T00:19:20.348Z,91885.75
2022-08-26T00:21:48.863Z,91885.75
2022-08-26T00:24:18.055Z,91885.75
2022-08-26T00:26:44.862Z,91885.75
2022-08-26T00:29:12.269Z,91889.88
2022-08-26T00:31:39.232Z,91885.75
2022-08-26T00:34:06.778Z,91884.28
2022-08-26T00:36:36.160Z,91881.50
2022-08-26T00:39:04.367Z,91885.75
2022-08-26T00:41:30.923Z,91896.22
2022-08-26T00:43:57.479Z,91899.72
2022-08-26T00:46:30.051Z,91892.69
2022-08-26T00:49:30.304Z,91895.50
2022-08-26T00:52:01.074Z,91887.09
2022-08-26T00:54:33.308Z,91895.50
2022-08-26T00:57:08.602Z,91890.63
2022-08-26T00:59:45.374Z,91895.50
2022-08-26T01:02:18.054Z,91895.50
2022-08-26T01:04:48.589Z,91893.44
2022-08-26T01:07:21.754Z,91902.53
2022-08-26T01:09:48.430Z,91901.09
2022-08-26T01:12:15.851Z,91898.28
2022-08-26T01:14:49.534Z,91903.16
2022-08-26T01:17:16.274Z,91906.69
2022-08-26T01:20:06.583Z,91907.41
2022-08-26T01:22:45.491Z,91906.69
2022-08-26T01:25:12.908Z,91901.09
2022-08-26T01:27:39.517Z,91901.09
2022-08-26T01:30:06.810Z,91900.34
2022-08-26T01:32:34.611Z,91899.63
2022-08-26T01:35:02.056Z,91902.41
2022-08-26T01:37:34.755Z,91899.63
2022-08-26T01:40:01.435Z,91904.50
2022-08-26T01:42:28.652Z,91899.63
2022-08-26T01:45:05.784Z,91903.88
2022-08-26T01:47:35.550Z,91908.00
2022-08-26T01:50:05.986Z,91909.47
2022-08-26T01:52:35.744Z,91910.81
2022-08-26T01:55:02.579Z,91905.22
2022-08-26T01:57:29.530Z,91904.50
2022-08-26T02:00:01.535Z,91900.97
2022-08-26T02:02:28.243Z,91911.53
2022-08-26T02:05:01.727Z,91904.50
2022-08-26T02:07:29.445Z,91899.63
2022-08-26T02:09:56.855Z,91910.81
2022-08-26T02:12:23.723Z,91910.81
2022-08-26T02:14:58.070Z,91908.00
2022-08-26T02:17:31.306Z,91908.00
2022-08-26T02:19:58.156Z,91908.00
2022-08-26T02:22:24.876Z,91907.31
2022-08-26T02:25:00.798Z,91905.22
2022-08-26T02:27:32.911Z,91904.50
2022-08-26T02:30:17.786Z,91908.00
2022-08-26T02:32:44.914Z,91903.78
2022-08-26T02:35:13.989Z,91903.03
2022-08-26T02:37:48.051Z,91904.50
2022-08-26T02:40:21.680Z,91899.63
2022-08-26T02:42:48.627Z,91904.50
2022-08-26T02:45:16.338Z,91903.78
2022-08-26T02:47:50.775Z,91899.50
2022-08-26T02:50:17.344Z,91903.78
2022-08-26T02:52:44.276Z,91896.69
2022-08-26T02:55:11.086Z,91899.63
2022-08-26T02:57:37.747Z,91896.69
2022-08-26T03:00:07.631Z,91902.28
2022-08-26T03:02:34.419Z,91902.28
2022-08-26T03:05:02.033Z,91896.69
2022-08-26T03:07:29.741Z,91895.38
2022-08-26T03:09:56.849Z,91897.44
2022-08-26T03:12:24.064Z,91903.78
2022-08-26T03:14:52.908Z,91903.03
2022-08-26T03:17:19.565Z,91898.16
2022-08-26T03:19:46.107Z,91903.03
2022-08-26T03:22:12.695Z,91896.69
2022-08-26T03:24:41.562Z,91896.00
2022-08-26T03:27:13.355Z,91899.50
2022-08-26T03:29:59.740Z,91896.69
2022-08-26T03:32:26.928Z,91896.69
2022-08-26T03:34:54.129Z,91902.28
2022-08-26T03:37:21.683Z,91901.59
2022-08-26T03:39:48.978Z,91907.91
2022-08-26T03:42:15.939Z,91905.09
2022-08-26T03:44:42.520Z,91902.28
2022-08-26T03:47:09.428Z,91903.03
2022-08-26T03:49:36.164Z,91901.59
2022-08-26T03:52:04.599Z,91906.44
2022-08-26T03:54:32.351Z,91902.28
2022-08-26T03:56:58.903Z,91902.28
2022-08-26T03:59:25.815Z,91904.38
2022-08-26T04:01:52.484Z,91902.28
2022-08-26T04:04:22.724Z,91907.19
2022-08-26T04:06:58.216Z,91907.91
2022-08-26T04:09:25.682Z,91905.09
2022-08-26T04:11:52.251Z,91905.72
2022-08-26T04:14:21.358Z,91907.91
2022-08-26T04:16:48.765Z,91900.84
2022-08-26T04:19:16.824Z,91912.03
2022-08-26T04:21:44.122Z,91906.44
2022-08-26T04:24:12.167Z,91907.19
2022-08-26T04:26:42.845Z,91901.59
2022-08-26T04:29:18.153Z,91900.84
2022-08-26T04:31:46.042Z,91907.91
2022-08-26T04:34:14.189Z,91900.84
2022-08-26T04:36:41.912Z,91896.63
2022-08-26T04:39:12.090Z,91900.84
2022-08-26T04:41:40.071Z,91906.44
2022-08-26T04:44:06.872Z,91906.44
2022-08-26T04:46:33.503Z,91906.44
2022-08-26T04:49:00.153Z,91899.41
2022-08-26T04:51:29.781Z,91905.00
2022-08-26T04:53:59.666Z,91900.84
2022-08-26T04:56:29.071Z,91903.66
2022-08-26T04:58:56.497Z,91900.84
2022-08-26T05:01:23.931Z,91896.63
2022-08-26T05:03:50.912Z,91898.06
2022-08-26T05:06:19.414Z,91900.13
2022-08-26T05:08:46.091Z,91900.13
2022-08-26T05:11:13.538Z,91900.84
2022-08-26T05:13:40.474Z,91899.41
2022-08-26T05:16:11.568Z,91905.00
2022-08-26T05:18:39.625Z,91897.31
2022-08-26T05:21:07.176Z,91900.84
2022-08-26T05:23:36.027Z,91898.06
2022-08-26T05:26:07.030Z,91891.00
2022-08-26T05:28:34.996Z,91893.81
2022-08-26T05:31:02.086Z,91888.22
2022-08-26T05:33:29.371Z,91888.22
2022-08-26T05:35:55.842Z,91887.47
2022-08-26T05:38:23.595Z,91888.22
2022-08-26T05:40:52.881Z,91893.81
2022-08-26T05:43:20.387Z,91888.22
2022-08-26T05:45:48.398Z,91899.41
2022-08-26T05:48:17.819Z,91898.69
2022-08-26T05:50:47.415Z,91895.88
2022-08-26T05:53:17.486Z,91897.94
2022-08-26T05:55:48.486Z,91900.75
2022-08-26T05:58:17.429Z,91905.00
2022-08-26T06:00:45.154Z,91906.44
2022-08-26T06:03:11.858Z,91896.69
2022-08-26T06:05:40.036Z,91900.34
2022-08-26T06:08:19.215Z,91902.53
2022-08-26T06:10:55.125Z,91905.31
2022-08-26T06:13:25.554Z,91908.13
2022-08-26T06:15:52.731Z,91910.81
2022-08-26T06:18:23.274Z,91905.22
2022-08-26T06:20:57.934Z,91910.09
2022-08-26T06:23:45.329Z,91908.63
2022-08-26T06:26:13.656Z,91909.38
2022-08-26T06:28:40.208Z,91903.78
2022-08-26T06:31:10.598Z,91910.09
2022-08-26T06:33:37.792Z,91902.41
2022-08-26T06:36:06.715Z,91904.50
2022-08-26T06:38:33.539Z,91899.63
2022-08-26T06:41:00.953Z,91900.34
2022-08-26T06:43:29.574Z,91899.63
2022-08-26T06:46:04.999Z,91902.41
2022-08-26T06:48:32.111Z,91901.09
2022-08-26T06:51:16.682Z,91895.50
2022-08-26T06:53:46.834Z,91899.63
2022-08-26T06:56:16.311Z,91895.50
2022-08-26T06:58:43.535Z,91901.09
2022-08-26T07:01:42.824Z,91890.63
2022-08-26T07:04:11.436Z,91902.53
2022-08-26T07:06:40.567Z,91884.28
2022-08-26T07:09:09.854Z,91882.22
2022-08-26T07:11:38.861Z,91878.81
2022-08-26T07:14:06.734Z,91885.03
2022-08-26T07:16:33.822Z,91887.22
2022-08-26T07:19:03.619Z,91885.75
2022-08-26T07:21:40.456Z,91887.91
2022-08-26T07:24:08.000Z,91881.59
2022-08-26T07:26:34.832Z,91878.81
2022-08-26T07:29:02.027Z,91878.81
2022-08-26T07:31:36.079Z,91871.84
2022-08-26T07:34:07.617Z,91871.84
2022-08-26T07:36:34.594Z,91866.25
2022-08-26T07:39:01.197Z,91859.22
2022-08-26T07:43:59.763Z,91855.06
2022-08-26T07:46:26.966Z,91850.94
2022-08-26T07:48:54.154Z,91850.94
2022-08-26T07:51:21.938Z,91845.34
2022-08-26T07:53:52.325Z,91850.94
2022-08-26T07:56:20.028Z,91838.38
2022-08-26T07:58:51.361Z,91839.75
2022-08-26T08:01:23.696Z,91834.16
2022-08-26T08:03:51.752Z,91835.59
2022-08-26T08:06:27.366Z,91830.00
2022-08-26T08:08:55.629Z,91818.81
2022-08-26T08:11:23.066Z,91819.53
2022-08-26T08:13:56.237Z,91813.19
2022-08-26T08:16:24.696Z,91809.03
2022-08-26T08:18:51.362Z,91810.41
2022-08-26T08:21:21.565Z,91799.84
2022-08-26T08:23:51.418Z,91796.41
2022-08-26T08:26:18.095Z,91794.97
2022-08-26T08:28:46.252Z,91788.00
2022-08-26T08:31:57.056Z,91788.25
2022-08-26T08:34:19.190Z,91791.22
2022-08-26T08:36:48.179Z,91789.28
2022-08-26T08:39:14.731Z,91782.94
2022-08-26T08:41:52.847Z,91781.50
2022-08-26T08:47:04.123Z,91773.72
2022-08-26T08:49:32.824Z,91773.72
2022-08-26T08:52:02.264Z,91770.19
2022-08-26T08:54:32.464Z,91764.72
2022-08-26T08:57:12.857Z,91753.50
2022-08-26T08:59:58.625Z,91758.38
2022-08-26T09:02:58.728Z,91745.00
2022-08-26T09:05:34.774Z,91737.97
2022-08-26T09:08:11.132Z,91733.09
2022-08-26T09:10:47.065Z,91726.78
2022-08-26T09:13:16.362Z,91723.34
2022-08-26T09:15:59.067Z,91721.88
2022-08-26T09:18:28.297Z,91714.22
2022-08-26T09:21:04.438Z,91709.97
2022-08-26T09:23:34.091Z,91705.81
2022-08-26T09:26:18.120Z,91710.06
2022-08-26T09:28:48.528Z,91700.84
2022-08-26T09:31:20.051Z,91694.63
2022-08-26T09:33:46.975Z,91693.19
2022-08-26T09:36:34.445Z,91688.31
2022-08-26T09:39:11.695Z,91684.16
2022-08-26T09:41:38.268Z,91674.41
2022-08-26T09:44:23.055Z,91668.09
2022-08-26T09:46:52.630Z,91668.72
2022-08-26T09:49:36.266Z,91661.03
2022-08-26T09:52:14.178Z,91668.09
2022-08-26T09:54:42.356Z,91651.28
2022-08-26T09:57:21.873Z,91646.31
2022-08-26T09:59:49.540Z,91644.25
2022-08-26T10:02:34.534Z,91638.66
2022-08-26T10:05:09.567Z,91632.31
2022-08-26T10:07:41.954Z,91631.63
2022-08-26T10:10:22.070Z,91623.22
2022-08-26T10:13:12.536Z,91617.63
2022-08-26T10:15:51.196Z,91620.44
2022-08-26T10:18:34.105Z,91609.22
2022-08-26T10:21:04.003Z,91606.44
2022-08-26T10:26:32.352Z,91598.03
2022-08-26T10:29:03.780Z,91592.44
2022-08-26T10:31:38.159Z,91596.56
2022-08-26T10:34:07.156Z,91588.16
2022-08-26T10:37:13.788Z,91588.16
2022-08-26T10:39:59.180Z,91583.94
2022-08-26T10:42:37.634Z,91581.13
2022-08-26T10:45:19.813Z,91578.34
2022-08-26T10:47:50.287Z,91571.28
2022-08-26T10:50:18.155Z,91572.00
2022-08-26T10:53:32.622Z,91568.59
2022-08-26T10:56:05.506Z,91563.00
2022-08-26T10:59:01.727Z,91558.13
2022-08-26T11:01:55.189Z,91558.13
2022-08-26T11:04:25.597Z,91551.78
2022-08-26T11:07:31.718Z,91543.41
2022-08-26T11:10:19.442Z,91543.50
2022-08-26T11:12:49.242Z,91543.72
2022-08-26T11:15:24.583Z,91543.06
2022-08-26T11:17:51.427Z,91543.19
2022-08-26T11:20:24.271Z,91527.13
2022-08-26T11:22:52.144Z,91534.88
2022-08-26T11:25:29.650Z,91528.56
2022-08-26T11:28:00.604Z,91516.09
2022-08-26T11:30:38.193Z,91517.56
2022-08-26T11:33:08.214Z,91516.81
2022-08-26T11:35:34.862Z,91521.69
2022-08-26T11:38:20.195Z,91513.19
2022-08-26T11:40:58.004Z,91503.25
2022-08-26T11:43:29.884Z,91511.56
2022-08-26T11:46:09.200Z,91504.53
2022-08-26T11:48:41.856Z,91498.81
2022-08-26T11:51:12.026Z,91482.66
2022-08-26T11:53:44.663Z,91487.53
2022-08-26T11:56:34.620Z,91483.38
2022-08-26T11:59:15.582Z,91481.19
2022-08-26T12:01:46.335Z,91469.31
2022-08-26T12:04:26.425Z,91470.63
2022-08-26T12:06:53.451Z,91466.41
2022-08-26T12:09:26.667Z,91462.88
2022-08-26T12:12:08.603Z,91456.53
2022-08-26T12:14:39.676Z,91454.47
2022-08-26T12:17:17.463Z,91460.81
2022-08-26T12:19:45.903Z,91453.75
2022-08-26T12:22:24.632Z,91453.75
2022-08-26T12:24:58.624Z,91446.72
2022-08-26T12:27:28.766Z,91441.13
2022-08-26T12:30:13.943Z,91440.38
2022-08-26T12:32:57.667Z,91441.13
2022-08-26T12:35:25.313Z,91442.44
2022-08-26T12:37:54.056Z,91431.25
2022-08-26T12:40:41.605Z,91429.91
2022-08-26T12:43:09.526Z,91423.59
2022-08-26T12:45:54.794Z,91418.00
2022-08-26T12:48:29.834Z,91414.47
2022-08-26T12:50:57.842Z,91406.06
2022-08-26T12:53:30.318Z,91405.38
2022-08-26T12:56:05.066Z,91403.19
2022-08-26T12:58:39.420Z,91405.38
2022-08-26T13:01:09.030Z,91398.31
2022-08-26T13:03:38.687Z,91399.78
2022-08-26T13:06:29.447Z,91388.56
2022-08-26T13:08:57.925Z,91393.44
2022-08-26T13:11:34.751Z,91386.47
2022-08-26T13:14:07.779Z,91387.84
2022-08-26T13:16:35.747Z,91387.84
2022-08-26T13:19:05.848Z,91382.25
2022-08-26T13:21:55.446Z,91388.56
2022-08-26T13:24:30.112Z,91376.66
2022-08-26T13:26:56.691Z,91382.25
2022-08-26T13:29:23.346Z,91376.66
2022-08-26T13:31:50.688Z,91371.06
2022-08-26T13:34:19.976Z,91369.69
2022-08-26T13:36:54.125Z,91365.47
2022-08-26T13:39:22.387Z,91350.03
2022-08-26T13:41:49.298Z,91359.88
2022-08-26T13:44:16.003Z,91355.69
2022-08-26T13:46:42.750Z,91352.84
2022-08-26T13:49:10.119Z,91354.25
2022-08-26T13:51:37.651Z,91358.50
2022-08-26T13:54:05.348Z,91349.41
2022-08-26T13:56:32.795Z,91348.66
2022-08-26T13:59:01.176Z,91341.63
2022-08-26T14:01:30.422Z,91353.53
2022-08-26T14:03:57.278Z,91350.03
2022-08-26T14:06:25.212Z,91343.06
2022-08-26T14:08:51.838Z,91352.84
2022-08-26T14:11:18.726Z,91347.22
2022-08-26T14:13:45.278Z,91348.66
2022-08-26T14:16:19.471Z,91337.47
2022-08-26T14:18:50.515Z,91341.63
2022-08-26T14:21:17.404Z,91341.63
2022-08-26T14:23:44.010Z,91340.19
2022-08-26T14:26:14.345Z,91336.03
2022-08-26T14:28:56.470Z,91338.84
2022-08-26T14:31:23.869Z,91335.31
2022-08-26T14:33:50.698Z,91334.56
2022-08-26T14:36:29.324Z,91329.72
2022-08-26T14:39:00.158Z,91329.72
2022-08-26T14:41:27.160Z,91326.91
2022-08-26T14:44:01.207Z,91330.44
2022-08-26T14:46:31.670Z,91336.03
2022-08-26T14:49:00.985Z,91330.44
2022-08-26T14:51:28.848Z,91324.84
2022-08-26T14:54:13.474Z,91329.09
2022-08-26T14:56:51.261Z,91328.34
2022-08-26T14:59:21.423Z,91328.97
2022-08-26T15:01:48.105Z,91329.09
2022-08-26T15:04:15.758Z,91328.97
2022-08-26T15:06:42.483Z,91322.06
2022-08-26T15:09:09.144Z,91328.97
2022-08-26T15:11:35.773Z,91326.19
2022-08-26T15:14:02.805Z,91323.38
2022-08-26T15:16:29.593Z,91326.19
2022-08-26T15:18:57.079Z,91326.19
2022-08-26T15:21:25.652Z,91323.38
2022-08-26T15:23:53.366Z,91317.78
2022-08-26T15:26:21.806Z,91324.84
2022-08-26T15:28:48.716Z,91324.13
2022-08-26T15:31:15.609Z,91324.84
2022-08-26T15:33:42.701Z,91330.44
2022-08-26T15:36:09.718Z,91329.72
2022-08-26T15:38:40.011Z,91341.63
2022-08-26T15:41:08.746Z,91337.47
2022-08-26T15:43:36.891Z,91337.47
2022-08-26T15:46:03.775Z,91336.03
2022-08-26T15:48:30.360Z,91336.75
2022-08-26T15:51:00.500Z,91330.44
2022-08-26T15:53:30.403Z,91328.34
2022-08-26T15:55:58.498Z,91319.25
2022-08-26T15:58:27.164Z,91319.97
2022-08-26T16:00:55.791Z,91319.25
2022-08-26T16:03:22.644Z,91330.44
2022-08-26T16:05:49.403Z,91324.13
2022-08-26T16:08:16.188Z,91331.16
2022-08-26T16:10:49.965Z,91333.25
2022-08-26T16:13:18.959Z,91333.84
2022-08-26T16:15:46.408Z,91326.28
2022-08-26T16:18:13.898Z,91330.44
2022-08-26T16:20:55.195Z,91337.47
2022-08-26T16:23:36.014Z,91330.44
2022-08-26T16:26:15.233Z,91332.59
2022-08-26T16:28:42.236Z,91351.47
2022-08-26T16:31:10.640Z,91347.22
2022-08-26T16:33:40.707Z,91354.25
2022-08-26T16:36:08.348Z,91361.22
2022-08-26T16:38:36.259Z,91359.88
2022-08-26T16:41:03.739Z,91366.81
2022-08-26T16:43:30.335Z,91367.53
2022-08-26T16:45:57.428Z,91376.66
2022-08-26T16:48:24.307Z,91375.22
2022-08-26T16:50:51.689Z,91378.72
2022-08-26T16:53:19.048Z,91376.66
2022-08-26T16:55:50.466Z,91383.69
2022-08-26T16:58:18.483Z,91393.44
2022-08-26T17:00:45.504Z,91396.97
2022-08-26T17:03:12.476Z,91393.44
2022-08-26T17:05:40.207Z,91403.19
2022-08-26T17:08:07.283Z,91403.91
2022-08-26T17:10:33.923Z,91408.78
2022-08-26T17:13:00.716Z,91413.03
2022-08-26T17:15:27.729Z,91409.50
2022-08-26T17:17:54.766Z,91410.97
2022-08-26T17:20:23.407Z,91415.81
2022-08-26T17:22:52.413Z,91420.00
2022-08-26T17:25:31.661Z,91422.78
2022-08-26T17:27:59.171Z,91426.28
2022-08-26T17:30:29.820Z,91425.59
2022-08-26T17:32:57.615Z,91436.78
2022-08-26T17:35:24.879Z,91436.78
2022-08-26T17:37:51.998Z,91435.41
2022-08-26T17:40:21.951Z,91436.78
2022-08-26T17:42:48.833Z,91447.97
2022-08-26T17:45:16.430Z,91438.22
2022-08-26T17:47:44.063Z,91443.81
2022-08-26T17:50:13.260Z,91438.94
2022-08-26T17:52:41.211Z,91443.81
2022-08-26T17:55:09.767Z,91443.81
2022-08-26T17:57:40.924Z,91451.47
2022-08-26T18:00:13.699Z,91452.19
2022-08-26T18:02:40.652Z,91461.34
2022-08-26T18:05:08.399Z,91460.59
2022-08-26T18:07:43.725Z,91471.78
2022-08-26T18:10:13.299Z,91460.59
2022-08-26T18:12:40.988Z,91466.19
2022-08-26T18:15:09.493Z,91473.22
2022-08-26T18:17:36.149Z,91476.03
2022-08-26T18:20:03.076Z,91477.38
2022-08-26T18:22:30.147Z,91477.38
2022-08-26T18:24:59.084Z,91488.59
2022-08-26T18:27:26.508Z,91486.50
2022-08-26T18:29:53.164Z,91490.03
2022-08-26T18:32:19.679Z,91501.22
2022-08-26T18:34:46.218Z,91490.03
2022-08-26T18:39:45.453Z,91502.56
2022-08-26T18:42:12.823Z,91505.38
2022-08-26T18:44:39.371Z,91499.78
2022-08-26T18:47:06.072Z,91501.13
2022-08-26T18:49:32.604Z,91500.50
2022-08-26T18:51:59.146Z,91501.22
2022-08-26T18:54:25.986Z,91495.63
2022-08-26T18:56:52.944Z,91505.38
2022-08-26T18:59:19.630Z,91505.38
2022-08-26T19:01:53.419Z,91501.13
2022-08-26T19:04:20.122Z,91506.81
2022-08-26T19:06:49.367Z,91505.38
2022-08-26T19:09:17.911Z,91500.50
2022-08-26T19:11:45.660Z,91505.38
2022-08-26T19:14:15.485Z,91511.69
2022-08-26T19:16:45.143Z,91502.56
2022-08-26T19:19:12.571Z,91500.50
2022-08-26T19:21:39.749Z,91501.22
2022-08-26T19:24:15.219Z,91505.38
2022-08-26T19:26:47.515Z,91503.94
2022-08-26T19:29:15.401Z,91508.16
2022-08-26T19:31:44.075Z,91505.38
2022-08-26T19:34:13.015Z,91510.97
2022-08-26T19:36:43.050Z,91521.44
2022-08-26T19:39:12.198Z,91534.09
2022-08-26T19:41:39.840Z,91534.78
2022-08-26T19:44:11.007Z,91534.09
2022-08-26T19:49:06.075Z,91536.88
2022-08-26T19:51:33.886Z,91532.00
2022-08-26T19:54:01.238Z,91534.78
2022-08-26T19:56:28.657Z,91533.34
2022-08-26T19:58:56.059Z,91534.09
2022-08-26T20:01:23.191Z,91538.94
2022-08-26T20:03:50.173Z,91537.53
2022-08-26T20:06:17.548Z,91531.91
2022-08-26T20:08:44.656Z,91538.22
2022-08-26T20:11:17.447Z,91537.53
2022-08-26T20:13:46.679Z,91537.53
2022-08-26T20:16:14.014Z,91538.22
2022-08-26T20:18:59.644Z,91536.16
2022-08-26T20:21:26.851Z,91539.69
2022-08-26T20:23:54.810Z,91536.88
2022-08-26T20:26:21.343Z,91546.00
2022-08-26T20:28:47.899Z,91552.94
2022-08-26T20:31:18.551Z,91546.00
2022-08-26T20:33:46.609Z,91550.16
2022-08-26T20:36:15.081Z,91550.16
2022-08-26T20:38:41.661Z,91553.69
2022-08-26T20:41:08.463Z,91557.19
2022-08-26T20:43:35.120Z,91555.75
2022-08-26T20:46:01.760Z,91556.47
2022-08-26T20:48:28.359Z,91552.94
2022-08-26T20:50:59.955Z,91562.78
2022-08-26T20:53:28.708Z,91562.78
2022-08-26T20:55:59.475Z,91561.34
2022-08-26T20:58:26.011Z,91566.94
2022-08-26T21:00:52.678Z,91575.34
2022-08-26T21:03:19.256Z,91576.78
2022-08-26T21:05:45.879Z,91580.94
2022-08-26T21:08:13.179Z,91578.13
2022-08-26T21:10:39.815Z,91583.84
2022-08-26T21:13:07.414Z,91583.72
2022-08-26T21:15:35.161Z,91589.31
2022-08-26T21:18:01.779Z,91591.38
2022-08-26T21:20:28.349Z,91599.78
2022-08-26T21:22:55.055Z,91604.75
2022-08-26T21:25:21.767Z,91615.88
2022-08-26T21:27:48.280Z,91621.47
2022-08-26T21:30:15.910Z,91628.50
2022-08-26T21:32:42.955Z,91645.28
2022-08-26T21:35:09.994Z,91634.09
2022-08-26T21:37:36.639Z,91636.91
2022-08-26T21:40:05.300Z,91649.53
2022-08-26T21:42:33.423Z,91644.56
2022-08-26T21:45:01.119Z,91656.50
2022-08-26T21:47:28.174Z,91649.53
2022-08-26T21:49:54.764Z,91662.09
2022-08-26T21:52:21.480Z,91663.53
2022-08-26T21:54:49.454Z,91666.31
2022-08-26T21:57:16.677Z,91674.72
2022-08-26T21:59:43.183Z,91677.63
2022-08-26T22:02:10.950Z,91682.50
2022-08-26T22:04:37.685Z,91683.94
2022-08-26T22:07:04.296Z,91683.22
2022-08-26T22:09:31.676Z,91686.03
2022-08-26T22:11:59.254Z,91686.03
2022-08-26T22:14:30.873Z,91687.38
2022-08-26T22:16:59.405Z,91704.16
2022-08-26T22:19:26.096Z,91700.00
2022-08-26T22:21:54.614Z,91698.56
2022-08-26T22:24:23.783Z,91708.41
2022-08-26T22:26:50.925Z,91727.28
2022-08-26T22:29:18.776Z,91728.72
2022-08-26T22:31:46.046Z,91739.19
2022-08-26T22:34:15.654Z,91750.38
2022-08-26T22:36:44.415Z,91762.31
2022-08-26T22:39:15.974Z,91758.78
2022-08-26T22:41:43.654Z,91762.31
2022-08-26T22:44:11.854Z,91781.16
2022-08-26T22:46:40.289Z,91789.56
2022-08-26T22:49:09.431Z,91798.69
2022-08-26T22:51:36.027Z,91811.25
2022-08-26T22:54:02.622Z,91819.03
2022-08-26T22:56:29.968Z,91823.16
2022-08-26T22:58:56.535Z,91834.34
2022-08-26T23:01:23.863Z,91835.09
2022-08-26T23:03:50.742Z,91843.47
2022-08-26T23:06:17.394Z,91854.06
2022-08-26T23:08:46.290Z,91860.38
2022-08-26T23:11:14.866Z,91868.03
2022-08-26T23:13:41.433Z,91877.19
2022-08-26T23:16:10.962Z,91882.03
2022-08-26T23:18:38.492Z,91883.50
2022-08-26T23:21:06.050Z,91882.03
2022-08-26T23:23:32.875Z,91887.63
2022-08-26T23:26:00.216Z,91887.63
2022-08-26T23:28:28.861Z,91886.19
2022-08-26T23:30:55.454Z,91898.09
2022-08-26T23:33:21.971Z,91891.06
2022-08-26T23:35:48.516Z,91894.59
2022-08-26T23:38:15.954Z,91896.66
2022-08-26T23:40:42.543Z,91891.06
2022-08-26T23:43:11.571Z,91901.53
2022-08-26T23:45:38.548Z,91901.53
2022-08-26T23:48:06.336Z,91893.13
2022-08-26T23:50:51.544Z,91903.00
2022-08-26T23:53:21.776Z,91895.91
2022-08-26T23:55:50.975Z,91901.53
2022-08-26T23:58:19.355Z,91903.00
